createdAt,value
2017-12-13T00:00:08.336Z,5.30
2017-12-13T00:02:35.820Z,4.77
2017-12-13T00:05:03.279Z,5.20
2017-12-13T00:07:30.712Z,4.90
2017-12-13T00:09:59.881Z,5.30
2017-12-13T00:12:27.892Z,5.30
2017-12-13T00:14:56.144Z,5.00
2017-12-13T00:17:23.740Z,5.00
2017-12-13T00:19:51.204Z,5.30
2017-12-13T00:22:18.652Z,5.60
2017-12-13T00:24:46.112Z,5.10
2017-12-13T00:27:21.212Z,5.47
2017-12-13T00:29:49.116Z,5.85
2017-12-13T00:32:17.352Z,5.72
2017-12-13T00:34:44.800Z,5.67
2017-12-13T00:37:12.253Z,5.75
2017-12-13T00:39:39.739Z,5.30
2017-12-13T00:42:13.623Z,6.53
2017-12-13T00:44:41.108Z,5.30
2017-12-13T00:47:09.469Z,5.22
2017-12-13T00:49:36.935Z,5.23
2017-12-13T00:52:04.376Z,4.75
2017-12-13T00:54:31.852Z,6.57
2017-12-13T00:56:59.295Z,5.33
2017-12-13T00:59:26.765Z,5.10
2017-12-13T01:01:54.203Z,5.57
2017-12-13T01:04:23.205Z,5.85
2017-12-13T01:06:50.645Z,4.47
2017-12-13T01:09:18.152Z,5.70
2017-12-13T01:11:45.581Z,6.20
2017-12-13T01:14:13.056Z,5.10
2017-12-13T01:16:40.563Z,5.53
2017-12-13T01:19:08.007Z,4.70
2017-12-13T01:21:36.062Z,5.87
2017-12-13T01:24:03.520Z,5.27
2017-12-13T01:26:31.432Z,5.43
2017-12-13T01:29:02.707Z,5.47
2017-12-13T01:31:31.181Z,5.25
2017-12-13T01:33:58.644Z,5.20
2017-12-13T01:36:26.084Z,4.90
2017-12-13T01:38:53.618Z,4.10
2017-12-13T01:41:21.196Z,5.12
2017-12-13T01:43:48.824Z,4.93
2017-12-13T01:46:16.341Z,5.37
2017-12-13T01:48:45.411Z,5.60
2017-12-13T01:51:12.856Z,4.80
2017-12-13T01:53:40.316Z,4.60
2017-12-13T01:56:07.806Z,4.67
2017-12-13T01:58:39.600Z,5.03
2017-12-13T02:01:08.200Z,5.47
2017-12-13T02:03:35.677Z,5.50
2017-12-13T02:06:03.229Z,5.80
2017-12-13T02:08:30.776Z,5.80
2017-12-13T02:10:59.124Z,5.50
2017-12-13T02:13:26.617Z,6.20
2017-12-13T02:15:54.080Z,5.50
2017-12-13T02:18:21.543Z,5.95
2017-12-13T02:20:49.128Z,5.82
2017-12-13T02:23:19.009Z,6.83
2017-12-13T02:25:46.488Z,5.90
2017-12-13T02:28:13.956Z,5.60
2017-12-13T02:30:41.405Z,5.72
2017-12-13T02:33:08.903Z,5.70
2017-12-13T02:35:36.388Z,5.97
2017-12-13T02:38:03.860Z,5.60
2017-12-13T02:40:43.785Z,4.80
2017-12-13T02:43:11.352Z,5.67
2017-12-13T02:45:38.784Z,5.23
2017-12-13T02:48:06.224Z,5.33
2017-12-13T02:50:33.814Z,6.53
2017-12-13T02:53:02.987Z,6.60
2017-12-13T02:55:30.705Z,5.68
2017-12-13T02:57:58.150Z,6.97
2017-12-13T03:00:29.329Z,6.10
2017-12-13T03:02:56.760Z,5.97
2017-12-13T03:05:24.297Z,6.23
2017-12-13T03:07:52.515Z,6.95
2017-12-13T03:10:19.960Z,7.15
2017-12-13T03:12:47.448Z,6.75
2017-12-13T03:15:14.898Z,7.83
2017-12-13T03:17:43.088Z,6.70
2017-12-13T03:20:10.548Z,6.40
2017-12-13T03:22:38.099Z,6.78
2017-12-13T03:25:06.554Z,6.65
2017-12-13T03:27:34.069Z,6.90
2017-12-13T03:30:01.525Z,7.57
2017-12-13T03:32:32.204Z,7.33
2017-12-13T03:34:59.672Z,7.47
2017-12-13T03:37:27.138Z,7.90
2017-12-13T03:39:56.283Z,7.80
2017-12-13T03:42:23.733Z,7.60
2017-12-13T03:44:51.218Z,7.40
2017-12-13T03:47:26.016Z,8.02
2017-12-13T03:49:53.479Z,7.93
2017-12-13T03:52:21.069Z,6.87
2017-12-13T03:54:49.006Z,6.50
2017-12-13T03:57:16.483Z,7.30
2017-12-13T03:59:43.977Z,6.50
2017-12-13T04:02:11.713Z,6.90
2017-12-13T04:04:39.175Z,5.70
2017-12-13T04:07:06.633Z,7.60
2017-12-13T04:09:35.173Z,6.07
2017-12-13T04:12:09.597Z,6.30
2017-12-13T04:14:37.038Z,7.05
2017-12-13T04:17:04.812Z,7.35
2017-12-13T04:19:32.273Z,5.67
2017-12-13T04:21:59.968Z,5.70
2017-12-13T04:24:27.447Z,7.05
2017-12-13T04:26:55.808Z,7.70
2017-12-13T04:29:25.868Z,6.40
2017-12-13T04:31:55.012Z,6.70
2017-12-13T04:34:22.515Z,6.60
2017-12-13T04:36:50.389Z,6.97
2017-12-13T04:39:18.663Z,6.80
2017-12-13T04:41:46.136Z,7.20
2017-12-13T04:44:14.080Z,8.18
2017-12-13T04:46:41.559Z,6.28
2017-12-13T04:49:09.012Z,7.07
2017-12-13T04:51:36.457Z,8.40
2017-12-13T04:54:03.936Z,7.12
2017-12-13T04:56:31.414Z,8.15
2017-12-13T04:59:03.235Z,6.57
2017-12-13T05:01:30.712Z,6.65
2017-12-13T05:03:58.188Z,5.90
2017-12-13T05:06:25.624Z,6.30
2017-12-13T05:08:54.001Z,5.50
2017-12-13T05:11:21.468Z,6.10
2017-12-13T05:13:48.913Z,6.00
2017-12-13T05:16:17.322Z,6.40
2017-12-13T05:18:44.804Z,5.63
2017-12-13T05:21:12.249Z,5.63
2017-12-13T05:23:39.758Z,6.03
2017-12-13T05:26:07.269Z,7.00
2017-12-13T05:28:37.897Z,7.32
2017-12-13T05:31:05.383Z,7.28
2017-12-13T05:33:32.829Z,6.93
2017-12-13T05:36:00.306Z,6.13
2017-12-13T05:38:27.886Z,7.10
2017-12-13T05:40:55.962Z,5.85
2017-12-13T05:43:23.401Z,6.43
2017-12-13T05:45:50.844Z,6.53
2017-12-13T05:48:19.151Z,8.10
2017-12-13T05:50:46.624Z,8.30
2017-12-13T05:53:15.516Z,7.32
2017-12-13T05:55:43.012Z,7.07
2017-12-13T05:58:10.483Z,6.30
2017-12-13T06:00:37.967Z,7.33
2017-12-13T06:03:05.496Z,6.97
2017-12-13T06:05:34.677Z,8.07
2017-12-13T06:08:04.596Z,6.60
2017-12-13T06:10:32.061Z,6.23
2017-12-13T06:12:59.526Z,6.60
2017-12-13T06:15:30.944Z,6.10
2017-12-13T06:17:59.031Z,6.15
2017-12-13T06:20:26.495Z,6.60
2017-12-13T06:22:53.940Z,6.50
2017-12-13T06:25:22.993Z,6.20
2017-12-13T06:27:50.425Z,5.97
2017-12-13T06:30:19.694Z,6.20
2017-12-13T06:32:47.616Z,5.83
2017-12-13T06:35:15.205Z,6.15
2017-12-13T06:37:43.490Z,6.57
2017-12-13T06:40:11.743Z,6.00
2017-12-13T06:42:39.326Z,5.50
2017-12-13T06:45:11.183Z,5.30
2017-12-13T06:47:39.231Z,5.50
2017-12-13T06:50:06.672Z,6.00
2017-12-13T06:52:34.148Z,6.07
2017-12-13T06:55:01.601Z,5.10
2017-12-13T06:57:29.067Z,4.80
2017-12-13T07:00:00.292Z,6.32
2017-12-13T07:02:27.771Z,5.00
2017-12-13T07:04:55.621Z,4.67
2017-12-13T07:07:23.212Z,5.60
2017-12-13T07:09:50.731Z,5.47
2017-12-13T07:12:18.444Z,5.80
2017-12-13T07:14:47.044Z,5.60
2017-12-13T07:17:18.944Z,6.50
2017-12-13T07:19:46.684Z,5.10
2017-12-13T07:22:14.320Z,5.27
2017-12-13T07:24:41.877Z,5.78
2017-12-13T07:27:09.550Z,5.30
2017-12-13T07:29:38.324Z,6.03
2017-12-13T07:32:11.925Z,6.06
2017-12-13T07:34:39.377Z,6.17
2017-12-13T07:37:07.772Z,6.00
2017-12-13T07:39:35.200Z,5.40
2017-12-13T07:42:02.655Z,6.68
2017-12-13T07:44:30.176Z,5.50
2017-12-13T07:46:57.772Z,6.50
2017-12-13T07:49:26.168Z,5.13
2017-12-13T07:51:53.608Z,6.20
2017-12-13T07:54:21.112Z,5.67
2017-12-13T07:56:48.590Z,6.80
2017-12-13T07:59:16.089Z,6.20
2017-12-13T08:01:43.736Z,5.05
2017-12-13T08:04:11.249Z,5.03
2017-12-13T08:06:38.785Z,6.97
2017-12-13T08:09:06.232Z,6.87
2017-12-13T08:11:34.624Z,8.20
2017-12-13T08:14:02.064Z,7.57
2017-12-13T08:16:34.028Z,6.70
2017-12-13T08:19:01.592Z,6.40
2017-12-13T08:21:30.225Z,8.10
2017-12-13T08:23:57.698Z,8.43
2017-12-13T08:26:25.209Z,6.97
2017-12-13T08:28:52.662Z,6.75
2017-12-13T08:31:23.163Z,8.07
2017-12-13T08:33:50.598Z,8.43
2017-12-13T08:36:19.027Z,7.47
2017-12-13T08:38:46.465Z,8.50
2017-12-13T08:41:14.236Z,8.48
2017-12-13T08:43:42.006Z,8.77
2017-12-13T08:46:09.428Z,8.90
2017-12-13T08:48:36.932Z,9.00
2017-12-13T08:51:04.403Z,10.57
2017-12-13T08:53:32.545Z,7.97
2017-12-13T08:56:00.017Z,8.82
2017-12-13T08:58:28.257Z,9.07
2017-12-13T09:00:55.900Z,8.90
2017-12-13T09:03:23.357Z,8.27
2017-12-13T09:05:52.572Z,7.87
2017-12-13T09:08:20.272Z,8.93
2017-12-13T09:10:47.845Z,9.20
2017-12-13T09:13:17.049Z,8.15
2017-12-13T09:15:44.521Z,9.40
2017-12-13T09:18:11.988Z,8.27
2017-12-13T09:20:39.560Z,7.97
2017-12-13T09:23:07.033Z,8.48
2017-12-13T09:25:34.551Z,8.38
2017-12-13T09:28:02.048Z,8.90
2017-12-13T09:30:30.561Z,9.15
2017-12-13T09:32:58.764Z,9.50
2017-12-13T09:35:26.245Z,8.53
2017-12-13T09:37:55.390Z,9.05
2017-12-13T09:40:23.644Z,9.10
2017-12-13T09:42:51.065Z,9.13
2017-12-13T09:45:20.225Z,10.32
2017-12-13T09:47:47.660Z,8.80
2017-12-13T09:50:15.107Z,7.43
2017-12-13T09:52:42.584Z,10.30
2017-12-13T09:55:10.877Z,10.77
2017-12-13T09:57:39.171Z,10.23
2017-12-13T10:00:06.660Z,9.60
2017-12-13T10:02:34.136Z,10.60
2017-12-13T10:05:01.576Z,8.80
2017-12-13T10:07:29.049Z,9.60
2017-12-13T10:09:56.481Z,8.35
2017-12-13T10:12:23.941Z,6.57
2017-12-13T10:14:52.000Z,8.40
2017-12-13T10:17:19.460Z,8.27
2017-12-13T10:19:46.977Z,8.27
2017-12-13T10:22:14.418Z,8.60
2017-12-13T10:24:41.872Z,7.80
2017-12-13T10:27:09.374Z,8.13
2017-12-13T10:29:37.090Z,8.83
2017-12-13T10:32:04.565Z,7.12
2017-12-13T10:34:32.193Z,7.70
2017-12-13T10:37:00.281Z,8.70
2017-12-13T10:39:28.156Z,8.30
2017-12-13T10:41:55.601Z,8.03
2017-12-13T10:44:23.064Z,6.87
2017-12-13T10:46:50.508Z,7.50
2017-12-13T10:49:17.968Z,8.43
2017-12-13T10:51:45.415Z,7.80
2017-12-13T10:54:13.789Z,9.13
2017-12-13T10:56:41.263Z,7.00
2017-12-13T10:59:09.308Z,8.00
2017-12-13T11:01:36.773Z,7.60
2017-12-13T11:04:08.117Z,7.53
2017-12-13T11:06:35.584Z,7.90
2017-12-13T11:09:04.281Z,8.30
2017-12-13T11:11:31.740Z,6.18
2017-12-13T11:13:59.989Z,6.57
2017-12-13T11:16:28.424Z,6.32
2017-12-13T11:18:56.661Z,6.40
2017-12-13T11:21:25.693Z,6.90
2017-12-13T11:23:53.276Z,7.20
2017-12-13T11:26:20.740Z,6.63
2017-12-13T11:28:48.185Z,6.28
2017-12-13T11:31:15.812Z,4.47
2017-12-13T11:33:43.280Z,6.30
2017-12-13T11:36:10.732Z,6.00
2017-12-13T11:38:38.202Z,6.53
2017-12-13T11:41:06.578Z,5.40
2017-12-13T11:43:34.408Z,4.63
2017-12-13T11:46:01.873Z,5.03
2017-12-13T11:48:29.318Z,4.63
2017-12-13T11:50:56.768Z,5.47
2017-12-13T11:53:24.288Z,5.25
2017-12-13T11:55:51.915Z,5.93
2017-12-13T11:58:20.859Z,4.35
2017-12-13T12:00:48.301Z,5.00
2017-12-13T12:03:15.832Z,3.23
2017-12-13T12:05:43.356Z,5.13
2017-12-13T12:08:10.885Z,4.77
2017-12-13T12:10:39.273Z,3.90
2017-12-13T12:13:06.782Z,5.70
2017-12-13T12:15:34.256Z,5.30
2017-12-13T12:18:01.725Z,5.10
2017-12-13T12:20:32.425Z,5.00
2017-12-13T12:22:59.960Z,5.23
2017-12-13T12:25:27.461Z,5.20
2017-12-13T12:27:55.205Z,4.78
2017-12-13T12:30:23.427Z,5.35
2017-12-13T12:32:50.868Z,5.00
2017-12-13T12:35:18.340Z,4.43
2017-12-13T12:37:45.797Z,4.75
2017-12-13T12:40:13.252Z,4.60
2017-12-13T12:42:40.864Z,5.33
2017-12-13T12:45:08.359Z,5.95
2017-12-13T12:47:35.780Z,4.00
2017-12-13T12:50:03.327Z,3.40
2017-12-13T12:52:31.653Z,3.40
2017-12-13T12:54:59.250Z,3.80
2017-12-13T12:57:26.819Z,4.33
2017-12-13T12:59:54.401Z,4.20
2017-12-13T13:02:22.679Z,3.40
2017-12-13T13:04:50.486Z,4.43
2017-12-13T13:07:17.952Z,4.93
2017-12-13T13:09:45.416Z,4.70
2017-12-13T13:12:13.034Z,4.00
2017-12-13T13:14:41.224Z,3.70
2017-12-13T13:17:08.886Z,3.17
2017-12-13T13:19:36.378Z,4.97
2017-12-13T13:22:05.685Z,4.22
2017-12-13T13:24:36.852Z,4.22
2017-12-13T13:27:05.010Z,2.80
2017-12-13T13:29:32.520Z,3.92
2017-12-13T13:31:59.959Z,3.97
2017-12-13T13:34:27.556Z,4.00
2017-12-13T13:36:58.544Z,3.78
2017-12-13T13:39:26.212Z,3.25
2017-12-13T13:41:55.608Z,4.35
2017-12-13T13:44:24.840Z,4.00
2017-12-13T13:46:52.268Z,3.13
2017-12-13T13:49:20.114Z,3.50
2017-12-13T13:51:47.577Z,3.60
2017-12-13T13:54:15.127Z,4.20
2017-12-13T13:56:42.568Z,3.67
2017-12-13T13:59:10.099Z,3.15
2017-12-13T14:01:38.513Z,3.50
2017-12-13T14:04:05.970Z,3.43
2017-12-13T14:06:33.475Z,5.03
2017-12-13T14:09:00.897Z,3.08
2017-12-13T14:11:29.198Z,2.58
2017-12-13T14:13:57.496Z,2.30
2017-12-13T14:16:24.967Z,2.70
2017-12-13T14:18:52.482Z,3.00
2017-12-13T14:21:21.018Z,3.10
2017-12-13T14:23:48.476Z,2.55
2017-12-13T14:26:16.868Z,3.30
2017-12-13T14:28:44.324Z,4.63
2017-12-13T14:31:11.820Z,4.20
2017-12-13T14:33:39.304Z,3.03
2017-12-13T14:36:06.730Z,2.80
2017-12-13T14:38:38.803Z,2.72
2017-12-13T14:41:06.483Z,3.47
2017-12-13T14:43:34.002Z,2.90
2017-12-13T14:46:02.311Z,2.87
2017-12-13T14:48:29.844Z,2.97
2017-12-13T14:50:57.309Z,2.67
2017-12-13T14:53:26.240Z,2.80
2017-12-13T14:55:53.802Z,2.40
2017-12-13T14:58:21.310Z,2.60
2017-12-13T15:00:48.752Z,3.87
2017-12-13T15:03:16.225Z,3.17
2017-12-13T15:05:45.358Z,2.70
2017-12-13T15:08:16.197Z,2.50
2017-12-13T15:10:43.689Z,2.50
2017-12-13T15:13:12.683Z,2.97
2017-12-13T15:15:40.120Z,3.30
2017-12-13T15:18:07.563Z,2.53
2017-12-13T15:20:35.107Z,2.72
2017-12-13T15:23:02.602Z,2.60
2017-12-13T15:25:30.106Z,3.87
2017-12-13T15:27:59.224Z,2.37
2017-12-13T15:30:26.704Z,2.53
2017-12-13T15:32:54.144Z,2.62
2017-12-13T15:35:21.659Z,2.12
2017-12-13T15:37:49.160Z,3.53
2017-12-13T15:40:16.854Z,3.60
2017-12-13T15:42:44.532Z,2.78
2017-12-13T15:45:12.208Z,2.53
2017-12-13T15:47:40.542Z,1.92
2017-12-13T15:50:08.127Z,2.20
2017-12-13T15:52:36.426Z,2.50
2017-12-13T15:55:04.668Z,2.27
2017-12-13T15:57:32.151Z,2.70
2017-12-13T15:59:59.601Z,4.17
2017-12-13T16:02:27.078Z,3.60
2017-12-13T16:04:54.504Z,3.63
2017-12-13T16:07:21.964Z,2.57
2017-12-13T16:09:49.403Z,2.40
2017-12-13T16:12:18.043Z,2.53
2017-12-13T16:14:45.555Z,2.23
2017-12-13T16:17:12.972Z,1.67
2017-12-13T16:19:40.511Z,2.47
2017-12-13T16:22:07.982Z,2.15
2017-12-13T16:24:46.622Z,2.30
2017-12-13T16:27:14.094Z,2.83
2017-12-13T16:29:41.758Z,2.80
2017-12-13T16:32:09.479Z,2.10
2017-12-13T16:34:38.775Z,2.30
2017-12-13T16:37:06.565Z,2.53
2017-12-13T16:39:34.713Z,1.90
2017-12-13T16:42:02.680Z,2.17
2017-12-13T16:44:30.386Z,2.27
2017-12-13T16:46:57.964Z,2.67
2017-12-13T16:49:25.767Z,1.93
2017-12-13T16:51:53.258Z,2.28
2017-12-13T16:54:20.826Z,2.35
2017-12-13T16:56:48.444Z,2.40
2017-12-13T16:59:17.424Z,2.20
2017-12-13T17:01:46.574Z,3.50
2017-12-13T17:04:14.769Z,2.28
2017-12-13T17:06:43.170Z,2.50
2017-12-13T17:09:10.944Z,2.83
2017-12-13T17:11:40.264Z,2.58
2017-12-13T17:14:09.172Z,2.48
2017-12-13T17:16:37.006Z,2.62
2017-12-13T17:19:04.791Z,2.10
2017-12-13T17:21:32.594Z,1.75
2017-12-13T17:24:00.134Z,1.98
2017-12-13T17:26:28.772Z,2.25
2017-12-13T17:28:56.261Z,2.73
2017-12-13T17:31:23.734Z,1.80
2017-12-13T17:33:51.259Z,2.57
2017-12-13T17:36:18.780Z,1.80
2017-12-13T17:38:46.308Z,3.97
2017-12-13T17:41:13.760Z,3.00
2017-12-13T17:43:42.758Z,2.40
2017-12-13T17:46:15.714Z,3.30
2017-12-13T17:48:43.992Z,2.97
2017-12-13T17:51:11.537Z,4.37
2017-12-13T17:53:39.773Z,4.20
2017-12-13T17:56:10.992Z,3.00
2017-12-13T17:58:38.574Z,3.20
2017-12-13T18:01:06.426Z,2.63
2017-12-13T18:03:33.880Z,5.75
2017-12-13T18:06:02.908Z,2.80
2017-12-13T18:08:30.390Z,4.68
2017-12-13T18:10:58.817Z,3.90
2017-12-13T18:13:27.416Z,4.00
2017-12-13T18:15:54.940Z,3.33
2017-12-13T18:18:22.685Z,3.35
2017-12-13T18:20:50.155Z,10.93
2017-12-13T18:23:17.728Z,3.53
2017-12-13T18:25:46.122Z,4.53
2017-12-13T18:28:13.602Z,3.60
2017-12-13T18:30:41.520Z,3.97
2017-12-13T18:33:09.072Z,4.00
2017-12-13T18:35:37.643Z,5.47
2017-12-13T18:38:05.132Z,4.50
2017-12-13T18:40:32.652Z,4.70
2017-12-13T18:43:00.942Z,3.77
2017-12-13T18:45:30.102Z,4.40
2017-12-13T18:47:57.655Z,3.53
2017-12-13T18:50:25.222Z,5.20
2017-12-13T18:52:52.680Z,4.60
2017-12-13T18:55:20.102Z,3.50
2017-12-13T18:57:50.970Z,3.90
2017-12-13T19:00:18.980Z,3.67
2017-12-13T19:02:46.504Z,4.50
2017-12-13T19:05:13.949Z,4.13
2017-12-13T19:07:41.455Z,3.67
2017-12-13T19:10:09.723Z,4.57
2017-12-13T19:12:37.393Z,3.90
2017-12-13T19:15:04.899Z,3.90
2017-12-13T19:17:33.600Z,3.90
2017-12-13T19:20:01.085Z,4.37
2017-12-13T19:22:28.620Z,4.95
2017-12-13T19:24:56.305Z,4.40
2017-12-13T19:27:23.824Z,4.47
2017-12-13T19:29:51.740Z,4.37
2017-12-13T19:32:19.246Z,4.65
2017-12-13T19:34:46.735Z,5.00
2017-12-13T19:37:14.274Z,5.62
2017-12-13T19:39:42.217Z,4.57
2017-12-13T19:42:09.720Z,4.40
2017-12-13T19:44:40.995Z,4.05
2017-12-13T19:47:08.487Z,6.47
2017-12-13T19:49:36.480Z,5.07
2017-12-13T19:52:03.996Z,4.67
2017-12-13T19:54:31.531Z,5.00
2017-12-13T19:56:59.020Z,4.70
2017-12-13T19:59:36.674Z,5.17
2017-12-13T20:02:04.152Z,4.27
2017-12-13T20:04:31.668Z,4.50
2017-12-13T20:07:00.485Z,5.43
2017-12-13T20:09:28.754Z,5.63
2017-12-13T20:11:56.367Z,5.97
2017-12-13T20:14:23.864Z,5.90
2017-12-13T20:16:51.365Z,5.00
2017-12-13T20:19:18.881Z,5.10
2017-12-13T20:21:46.362Z,5.80
2017-12-13T20:24:15.548Z,5.43
2017-12-13T20:26:43.360Z,4.90
2017-12-13T20:29:10.853Z,4.47
2017-12-13T20:31:38.305Z,5.90
2017-12-13T20:34:05.865Z,6.30
2017-12-13T20:36:34.903Z,5.10
2017-12-13T20:39:02.447Z,5.60
2017-12-13T20:41:29.935Z,6.67
2017-12-13T20:43:57.447Z,6.20
2017-12-13T20:46:25.748Z,5.87
2017-12-13T20:48:54.933Z,6.72
2017-12-13T20:51:23.130Z,6.10
2017-12-13T20:53:50.649Z,5.50
2017-12-13T20:56:18.722Z,5.57
2017-12-13T20:58:50.008Z,5.33
2017-12-13T21:01:17.523Z,5.03
2017-12-13T21:03:45.001Z,5.63
2017-12-13T21:06:13.652Z,5.62
2017-12-13T21:08:41.256Z,7.03
2017-12-13T21:11:08.893Z,5.20
2017-12-13T21:13:36.524Z,5.17
2017-12-13T21:16:04.012Z,4.75
2017-12-13T21:18:33.363Z,5.60
2017-12-13T21:21:00.876Z,5.37
2017-12-13T21:23:28.515Z,5.37
2017-12-13T21:25:56.035Z,5.50
2017-12-13T21:28:23.552Z,6.28
2017-12-13T21:30:54.737Z,5.20
2017-12-13T21:33:22.347Z,5.23
2017-12-13T21:35:49.868Z,5.43
2017-12-13T21:38:17.383Z,5.50
2017-12-13T21:40:44.886Z,5.10
2017-12-13T21:43:12.437Z,5.20
2017-12-13T21:45:40.815Z,4.62
2017-12-13T21:48:08.296Z,5.07
2017-12-13T21:50:36.788Z,5.77
2017-12-13T21:53:05.200Z,5.43
2017-12-13T21:55:32.848Z,5.23
2017-12-13T21:58:00.782Z,6.16
2017-12-13T22:00:28.224Z,5.80
2017-12-13T22:02:55.708Z,5.40
2017-12-13T22:05:23.233Z,5.10
2017-12-13T22:07:50.810Z,5.43
2017-12-13T22:10:18.326Z,5.53
2017-12-13T22:12:45.810Z,5.22
2017-12-13T22:15:16.019Z,4.80
2017-12-13T22:17:43.570Z,5.60
2017-12-13T22:20:11.101Z,5.20
2017-12-13T22:22:38.852Z,4.70
2017-12-13T22:25:06.351Z,3.60
2017-12-13T22:27:33.855Z,4.90
2017-12-13T22:30:01.593Z,4.68
2017-12-13T22:32:29.016Z,5.53
2017-12-13T22:34:56.572Z,4.80
2017-12-13T22:37:24.069Z,4.70
2017-12-13T22:39:52.788Z,4.40
2017-12-13T22:42:20.376Z,6.20
2017-12-13T22:44:47.940Z,5.50
2017-12-13T22:47:15.584Z,4.35
2017-12-13T22:49:43.067Z,4.30
2017-12-13T22:52:10.541Z,4.13
2017-12-13T22:54:38.379Z,5.03
2017-12-13T22:57:06.291Z,4.96
2017-12-13T22:59:33.782Z,5.20
2017-12-13T23:02:01.329Z,4.50
2017-12-13T23:04:28.819Z,4.37
2017-12-13T23:06:56.326Z,4.53
2017-12-13T23:09:23.843Z,4.93
2017-12-13T23:11:52.118Z,3.90
2017-12-13T23:14:20.181Z,3.80
2017-12-13T23:16:47.624Z,4.00
2017-12-13T23:19:15.137Z,4.20
2017-12-13T23:21:42.573Z,4.10
2017-12-13T23:24:10.055Z,4.63
2017-12-13T23:26:37.516Z,4.50
2017-12-13T23:29:04.988Z,4.47
2017-12-13T23:31:35.618Z,4.40
2017-12-13T23:34:03.866Z,4.75
2017-12-13T23:36:31.318Z,4.57
2017-12-13T23:38:58.942Z,4.70
2017-12-13T23:41:27.174Z,3.70
2017-12-13T23:43:54.650Z,3.67
2017-12-13T23:46:22.113Z,4.07
2017-12-13T23:48:49.590Z,4.00
2017-12-13T23:51:17.555Z,4.60
2017-12-13T23:53:44.990Z,4.20
2017-12-13T23:56:13.060Z,4.35
2017-12-13T23:58:40.546Z,4.10
